Time;durP1;ratioP1;P1;durP2;ratioP2;P2;SDS_P1;SDS_P2;PMS_P1;PMS_P2;Temp;Humidity;BMP_temperature;BMP_pressure;BME280_temperature;BME280_humidity;BME280_pressure;Samples;Min_cycle;Max_cycle;Signal;HPM_P1;HPM_P2
2024/01/19 00:00:49;;;;;;;1.35;0.70;;;;;;;1.93;100.00;101008.06;5016329;28;20045;-86
2024/01/19 00:03:18;;;;;;;2.75;1.38;;;;;;;1.89;100.00;101018.03;5007135;28;20153;-84
2024/01/19 00:05:49;;;;;;;3.28;1.00;;;;;;;1.84;100.00;101027.03;5019620;28;20046;-82
2024/01/19 00:08:18;;;;;;;4.07;1.35;;;;;;;1.77;100.00;101045.25;5010461;28;20136;-83
2024/01/19 00:10:47;;;;;;;2.90;1.17;;;;;;;1.78;100.00;101056.34;5013456;28;20144;-81
2024/01/19 00:13:17;;;;;;;1.48;0.98;;;;;;;1.79;100.00;101059.00;4995647;28;20050;-81
2024/01/19 00:15:47;;;;;;;1.45;0.82;;;;;;;1.79;100.00;101056.47;5000590;28;20042;-81
2024/01/19 00:18:16;;;;;;;3.88;1.27;;;;;;;1.80;100.00;101045.47;5004940;28;20056;-82
2024/01/19 00:20:45;;;;;;;1.27;0.85;;;;;;;1.78;100.00;101029.16;5022128;28;20057;-81
2024/01/19 00:23:13;;;;;;;1.27;1.13;;;;;;;1.78;100.00;101008.75;5014600;28;20050;-83
2024/01/19 00:25:42;;;;;;;2.33;1.23;;;;;;;1.75;100.00;101005.13;5005996;28;20045;-84
2024/01/19 00:28:12;;;;;;;3.13;1.10;;;;;;;1.70;100.00;100993.72;5030410;28;20123;-82
2024/01/19 00:30:44;;;;;;;2.22;1.10;;;;;;;1.67;100.00;100979.06;5030481;28;20062;-80
2024/01/19 00:33:13;;;;;;;1.27;0.80;;;;;;;1.62;100.00;100971.09;5020752;28;20141;-81
2024/01/19 00:35:42;;;;;;;1.38;0.65;;;;;;;1.60;100.00;100975.19;5013738;28;20061;-83
2024/01/19 00:38:13;;;;;;;1.73;1.10;;;;;;;1.60;100.00;100971.78;5013252;28;20209;-83
2024/01/19 00:40:42;;;;;;;2.50;0.98;;;;;;;1.57;100.00;100984.31;5008447;28;20057;-82
2024/01/19 00:43:10;;;;;;;2.53;1.00;;;;;;;1.51;100.00;100996.66;5013351;28;20046;-81
2024/01/19 00:45:40;;;;;;;0.77;0.70;;;;;;;1.53;100.00;101020.59;5009372;28;20050;-80
2024/01/19 00:48:10;;;;;;;2.20;1.13;;;;;;;1.54;100.00;101018.16;5004668;28;20046;-80
2024/01/19 00:50:40;;;;;;;2.85;1.17;;;;;;;1.50;100.00;101025.47;5011939;28;20066;-80
2024/01/19 00:53:09;;;;;;;2.55;1.60;;;;;;;1.54;100.00;101030.03;5020886;28;20053;-80
2024/01/19 00:55:37;;;;;;;1.55;0.95;;;;;;;1.56;100.00;101039.56;5017370;28;20145;-80
2024/01/19 00:58:07;;;;;;;1.50;1.10;;;;;;;1.61;100.00;101039.88;5023514;28;20159;-80
2024/01/19 01:00:39;;;;;;;2.00;1.20;;;;;;;1.65;100.00;101046.97;5019166;28;20045;-81
2024/01/19 01:03:10;;;;;;;2.27;1.10;;;;;;;1.68;100.00;101057.38;5009761;28;20149;-81
2024/01/19 01:05:39;;;;;;;1.33;0.82;;;;;;;1.71;100.00;101069.44;5019776;28;20294;-81
2024/01/19 01:08:08;;;;;;;2.10;1.17;;;;;;;1.69;100.00;101066.78;5010246;28;20046;-81
2024/01/19 01:10:36;;;;;;;1.92;1.05;;;;;;;1.75;100.00;101076.56;4999854;28;20440;-82
2024/01/19 01:13:06;;;;;;;1.90;0.88;;;;;;;1.77;100.00;101080.09;4995895;28;20046;-80
2024/01/19 01:15:35;;;;;;;1.30;0.98;;;;;;;1.75;100.00;101082.53;5001900;28;20136;-80
2024/01/19 01:18:04;;;;;;;1.65;1.00;;;;;;;1.78;100.00;101099.72;5001117;28;20057;-80
2024/01/19 01:20:34;;;;;;;2.63;1.38;;;;;;;1.78;100.00;101081.84;5016445;28;20427;-82
2024/01/19 01:23:12;;;;;;;1.85;1.23;;;;;;;1.77;100.00;101087.75;5003072;28;20056;-80
2024/01/19 01:25:41;;;;;;;2.88;1.40;;;;;;;1.78;100.00;101077.63;5001593;28;20047;-81
2024/01/19 01:28:09;;;;;;;1.95;1.15;;;;;;;1.79;100.00;101060.69;5017620;28;20131;-81
2024/01/19 01:30:40;;;;;;;1.23;1.00;;;;;;;1.74;100.00;101073.13;5015324;28;20058;-81
2024/01/19 01:33:16;;;;;;;3.47;1.55;;;;;;;1.77;100.00;101083.53;4988936;28;20091;-82
2024/01/19 01:35:46;;;;;;;1.42;0.82;;;;;;;1.83;100.00;101058.44;5015380;28;20045;-82
2024/01/19 01:38:15;;;;;;;2.30;1.10;;;;;;;1.83;100.00;101052.44;5009831;28;20054;-81
2024/01/19 01:40:44;;;;;;;5.05;1.35;;;;;;;1.84;100.00;101055.09;5017090;28;20428;-81
2024/01/19 01:43:22;;;;;;;2.03;1.10;;;;;;;1.85;100.00;101067.06;5010572;28;20050;-82
2024/01/19 01:45:51;;;;;;;1.77;1.23;;;;;;;1.91;100.00;101045.34;5004327;28;20096;-81
2024/01/19 01:48:21;;;;;;;1.48;0.95;;;;;;;1.92;100.00;101037.75;5011351;28;20053;-82
2024/01/19 01:50:58;;;;;;;1.05;0.80;;;;;;;1.90;100.00;101036.75;5006548;28;20500;-80
2024/01/19 01:53:27;;;;;;;3.75;1.20;;;;;;;1.93;100.00;101043.78;5012340;28;20054;-84
2024/01/19 01:55:56;;;;;;;1.63;1.02;;;;;;;1.92;100.00;101039.44;5015690;28;20056;-79
2024/01/19 01:58:25;;;;;;;2.53;1.40;;;;;;;1.89;100.00;101033.34;5012649;28;20057;-77
2024/01/19 02:00:56;;;;;;;2.50;1.20;;;;;;;1.92;100.00;101042.84;5004794;28;20046;-80
2024/01/19 02:03:25;;;;;;;1.67;1.15;;;;;;;1.88;100.00;101043.47;5012515;28;20501;-80
2024/01/19 02:05:55;;;;;;;1.25;0.88;;;;;;;1.81;100.00;101034.50;5013742;28;20050;-80
2024/01/19 02:08:24;;;;;;;2.42;1.10;;;;;;;1.81;100.00;101037.03;5014235;28;20038;-80
2024/01/19 02:11:00;;;;;;;3.30;1.30;;;;;;;1.81;100.00;101049.81;5016731;28;20049;-78
2024/01/19 02:13:28;;;;;;;2.80;1.45;;;;;;;1.79;100.00;101030.94;5008539;28;20054;-82
2024/01/19 02:16:00;;;;;;;3.33;0.70;;;;;;;1.78;100.00;101038.47;5000235;28;20050;-81
2024/01/19 02:18:28;;;;;;;1.85;1.17;;;;;;;1.74;100.00;101018.63;5016132;28;20049;-83
2024/01/19 02:21:01;;;;;;;2.03;1.00;;;;;;;1.77;100.00;101022.28;5028059;28;20066;-81
2024/01/19 02:23:36;;;;;;;3.20;1.25;;;;;;;1.71;100.00;101009.09;5032570;28;20099;-80
2024/01/19 02:26:07;;;;;;;3.95;1.75;;;;;;;1.81;100.00;101023.38;5039962;28;20050;-80
2024/01/19 02:28:38;;;;;;;2.55;1.02;;;;;;;1.81;100.00;101034.50;5041640;28;20040;-81
2024/01/19 02:31:07;;;;;;;1.13;0.57;;;;;;;1.81;100.00;101037.03;5039670;28;20077;-81
2024/01/19 02:33:35;;;;;;;3.80;1.38;;;;;;;1.83;100.00;101043.16;5046670;28;20050;-79
2024/01/19 02:36:04;;;;;;;1.67;1.33;;;;;;;1.84;100.00;101039.78;5043588;28;20029;-85
2024/01/19 02:38:33;;;;;;;3.60;1.40;;;;;;;1.82;100.00;101035.38;5044223;28;20049;-82
2024/01/19 02:41:09;;;;;;;1.67;1.00;;;;;;;1.81;100.00;101024.28;5042773;28;20037;-83
2024/01/19 02:43:38;;;;;;;3.75;1.25;;;;;;;1.84;100.00;101029.59;5030823;28;20057;-84
2024/01/19 02:46:07;;;;;;;2.13;1.00;;;;;;;1.81;100.00;101019.19;5015557;28;20125;-87
2024/01/19 02:48:35;;;;;;;2.75;1.15;;;;;;;1.84;100.00;101018.50;5018541;28;20107;-85
2024/01/19 02:51:12;;;;;;;2.28;0.60;;;;;;;1.82;100.00;101015.84;5012884;28;20489;-86
2024/01/19 02:53:41;;;;;;;1.88;1.08;;;;;;;1.83;100.00;101011.63;5020032;28;20108;-86
2024/01/19 02:56:12;;;;;;;1.70;0.82;;;;;;;1.84;100.00;101009.19;5008050;28;20050;-86
2024/01/19 03:01:23;;;;;;;2.45;1.10;;;;;;;1.87;100.00;101016.16;5016668;28;20136;-84
2024/01/19 03:03:52;;;;;;;1.95;1.15;;;;;;;1.89;100.00;101035.00;5014409;28;20310;-84
2024/01/19 03:06:20;;;;;;;2.35;1.10;;;;;;;1.89;100.00;101028.22;5013515;28;20089;-82
2024/01/19 03:08:52;;;;;;;1.67;0.95;;;;;;;1.84;100.00;101018.50;5014916;28;20057;-82
2024/01/19 03:11:22;;;;;;;3.17;1.17;;;;;;;1.89;100.00;101012.03;5013156;28;20048;-82
2024/01/19 03:13:53;;;;;;;2.55;1.20;;;;;;;1.86;100.00;101017.81;4994432;28;20076;-83
2024/01/19 03:16:22;;;;;;;1.00;0.73;;;;;;;1.86;100.00;101015.28;4997660;28;20050;-83
2024/01/19 03:18:55;;;;;;;2.03;1.20;;;;;;;1.86;100.00;101007.63;5016462;28;20108;-84
2024/01/19 03:21:24;;;;;;;1.40;0.98;;;;;;;1.83;100.00;100981.00;5018677;28;20050;-84
2024/01/19 03:23:53;;;;;;;2.72;0.90;;;;;;;1.87;100.00;100988.09;5012157;28;20117;-85
2024/01/19 03:26:26;;;;;;;1.30;0.80;;;;;;;1.85;100.00;100957.34;5005944;28;20103;-84
2024/01/19 03:28:58;;;;;;;1.50;1.38;;;;;;;1.79;100.00;100941.66;5017758;28;20046;-87
2024/01/19 03:31:27;;;;;;;2.35;1.27;;;;;;;1.82;100.00;100936.75;5022879;28;20072;-84
2024/01/19 03:33:57;;;;;;;2.53;1.30;;;;;;;1.80;100.00;100930.66;4998245;28;20083;-84
2024/01/19 03:36:35;;;;;;;;;;;;;;;;;;;;;
2024/01/19 03:39:05;;;;;;;2.72;1.30;;;;;;;1.82;100.00;100929.09;5011396;28;20038;-86
2024/01/19 03:41:36;;;;;;;2.40;1.45;;;;;;;1.79;100.00;100944.19;5013570;28;20100;-82
2024/01/19 03:44:05;;;;;;;1.73;0.88;;;;;;;1.82;100.00;100952.06;5012691;28;20081;-84
2024/01/19 03:46:39;;;;;;;1.80;1.10;;;;;;;1.82;100.00;100953.72;5014369;28;20562;-81
2024/01/19 03:49:08;;;;;;;2.63;1.05;;;;;;;1.87;100.00;100971.09;4998873;28;20092;-82
2024/01/19 03:51:37;;;;;;;2.05;1.17;;;;;;;1.89;100.00;100966.13;5015345;28;20069;-83
2024/01/19 03:54:07;;;;;;;2.00;1.15;;;;;;;1.89;100.00;100961.00;5012868;28;20128;-83
2024/01/19 03:56:46;;;;;;;2.63;1.20;;;;;;;1.94;100.00;100964.75;5014873;28;20050;-82
2024/01/19 03:59:15;;;;;;;1.23;0.93;;;;;;;1.94;100.00;100968.97;5010598;28;20080;-84
2024/01/19 04:01:44;;;;;;;1.35;0.80;;;;;;;1.92;100.00;100965.44;5021743;28;20061;-83
2024/01/19 04:04:22;;;;;;;;;;;;;;;;;;;;;
2024/01/19 04:06:52;;;;;;;5.72;1.15;;;;;;;1.95;100.00;100989.50;5005258;28;20048;-82
2024/01/19 04:09:21;;;;;;;3.45;0.88;;;;;;;1.96;100.00;100978.50;5016136;28;20129;-83
2024/01/19 04:11:52;;;;;;;1.80;0.75;;;;;;;1.96;100.00;100975.94;5012913;28;20057;-83
2024/01/19 04:14:23;;;;;;;1.73;0.75;;;;;;;1.99;100.00;100977.81;4994978;28;20629;-84
2024/01/19 04:16:57;;;;;;;1.15;0.85;;;;;;;1.98;100.00;100986.28;5001406;28;20571;-82
2024/01/19 04:19:26;;;;;;;1.30;0.75;;;;;;;2.01;100.00;101002.66;5015164;28;20137;-83
2024/01/19 04:21:54;;;;;;;4.63;0.80;;;;;;;2.02;100.00;101008.66;5012514;28;20046;-81
2024/01/19 04:24:31;;;;;;;2.83;0.80;;;;;;;2.03;100.00;101007.88;5003341;28;20100;-84
2024/01/19 04:27:01;;;;;;;1.25;0.70;;;;;;;2.04;100.00;101009.66;5004899;28;20057;-83
2024/01/19 04:29:30;;;;;;;1.58;0.70;;;;;;;2.07;100.00;101023.50;5014386;28;20053;-83
2024/01/19 04:32:07;;;;;;;1.15;0.90;;;;;;;2.09;100.00;101010.84;5010704;28;20056;-82
2024/01/19 04:34:36;;;;;;;2.75;1.00;;;;;;;2.11;100.00;101019.50;5018057;28;20072;-83
2024/01/19 04:37:05;;;;;;;2.97;0.88;;;;;;;2.13;100.00;101009.38;5018626;28;20057;-84
2024/01/19 04:39:34;;;;;;;2.10;1.00;;;;;;;2.17;100.00;101002.03;5007668;28;20057;-83
2024/01/19 04:42:12;;;;;;;2.47;0.55;;;;;;;2.20;100.00;101006.44;5012331;28;20053;-84
2024/01/19 04:44:40;;;;;;;1.20;0.70;;;;;;;2.21;100.00;101000.56;5014725;28;20053;-83
2024/01/19 04:47:09;;;;;;;1.95;1.15;;;;;;;2.23;100.00;101005.00;5015247;28;20132;-84
2024/01/19 04:49:40;;;;;;;1.55;0.70;;;;;;;2.25;100.00;101005.97;5016606;28;20057;-83
2024/01/19 04:52:16;;;;;;;0.98;0.65;;;;;;;2.25;100.00;100992.34;5008303;28;20049;-83
2024/01/19 04:54:45;;;;;;;1.77;0.80;;;;;;;2.30;100.00;100991.84;5020859;28;20140;-84
2024/01/19 04:57:16;;;;;;;1.63;1.10;;;;;;;2.28;100.00;100962.78;5008235;28;20064;-82
2024/01/19 04:59:47;;;;;;;1.70;0.90;;;;;;;2.26;100.00;100938.81;5003100;28;20042;-83
2024/01/19 05:02:16;;;;;;;2.08;0.90;;;;;;;2.21;100.00;100929.97;5017923;28;20056;-83
2024/01/19 05:04:44;;;;;;;2.10;0.73;;;;;;;2.19;100.00;100926.44;5005956;28;20508;-84
2024/01/19 05:07:13;;;;;;;2.13;1.23;;;;;;;2.19;100.00;100925.53;5013556;28;20054;-84
2024/01/19 05:09:42;;;;;;;2.80;0.88;;;;;;;2.15;100.00;100896.38;5002006;28;20505;-84
2024/01/19 05:12:15;;;;;;;1.75;0.85;;;;;;;2.11;100.00;100894.44;5002800;28;20045;-82
2024/01/19 05:14:47;;;;;;;1.27;0.90;;;;;;;2.12;100.00;100868.09;4990759;28;20053;-83
2024/01/19 05:17:16;;;;;;;4.87;1.33;;;;;;;2.12;100.00;100888.53;4995140;28;20153;-85
2024/01/19 05:19:54;;;;;;;;;;;;;;;;;;;;;
2024/01/19 05:22:24;;;;;;;1.50;0.70;;;;;;;2.07;100.00;100915.41;5005848;28;20054;-84
2024/01/19 05:24:52;;;;;;;0.93;0.60;;;;;;;2.12;100.00;100936.16;5002378;28;20061;-82
2024/01/19 05:27:21;;;;;;;3.28;1.17;;;;;;;2.07;100.00;100923.06;5011881;28;20053;-83
2024/01/19 05:29:57;;;;;;;1.27;0.82;;;;;;;2.07;100.00;100948.59;5011443;28;20053;-84
2024/01/19 05:32:26;;;;;;;1.90;1.23;;;;;;;2.08;100.00;100968.22;5020538;28;20160;-83
2024/01/19 05:34:54;;;;;;;2.08;0.73;;;;;;;2.12;100.00;100976.97;5018737;28;20050;-83
2024/01/19 05:37:23;;;;;;;1.13;0.80;;;;;;;2.08;100.00;100978.44;5009843;28;20046;-82
2024/01/19 05:39:54;;;;;;;1.83;0.90;;;;;;;2.05;100.00;100978.25;5013984;28;20049;-83
2024/01/19 05:42:23;;;;;;;1.13;0.80;;;;;;;2.08;100.00;100983.53;5022031;28;20053;-83
2024/01/19 05:44:57;;;;;;;1.35;0.90;;;;;;;2.11;100.00;100988.88;5010541;28;20058;-83
2024/01/19 05:47:25;;;;;;;1.38;0.73;;;;;;;2.13;100.00;100974.53;5009448;28;20049;-83
2024/01/19 05:50:04;;;;;;;;;;;;;;;;;;;;;
2024/01/19 05:52:33;;;;;;;1.08;0.82;;;;;;;2.13;100.00;100996.59;5016365;28;20099;-84
2024/01/19 05:55:01;;;;;;;1.70;1.00;;;;;;;2.16;100.00;100999.38;5024135;28;20050;-83
2024/01/19 05:57:30;;;;;;;2.30;0.77;;;;;;;2.18;100.00;100979.97;5009883;28;20073;-81
2024/01/19 06:00:06;;;;;;;1.80;0.45;;;;;;;2.21;100.00;101004.00;5018140;28;20053;-82
2024/01/19 06:02:35;;;;;;;1.20;0.63;;;;;;;2.22;100.00;100990.47;5006536;28;20505;-84
2024/01/19 06:05:03;;;;;;;2.28;0.93;;;;;;;2.20;100.00;100971.63;5015600;28;20101;-82
2024/01/19 06:07:32;;;;;;;1.23;0.63;;;;;;;2.18;100.00;100970.63;5008564;28;20061;-84
2024/01/19 06:10:08;;;;;;;1.42;0.65;;;;;;;2.24;100.00;100963.34;5013012;28;20056;-83
2024/01/19 06:12:37;;;;;;;2.00;0.57;;;;;;;2.20;100.00;100961.41;5004025;28;20187;-84
2024/01/19 06:15:08;;;;;;;1.52;0.90;;;;;;;2.19;100.00;100962.16;4999749;28;20497;-81
2024/01/19 06:17:39;;;;;;;1.48;0.95;;;;;;;2.24;100.00;100960.78;4993031;28;20060;-84
2024/01/19 06:20:17;;;;;;;1.75;1.02;;;;;;;2.21;100.00;100940.19;5015881;28;20448;-84
2024/01/19 06:22:45;;;;;;;2.00;0.98;;;;;;;2.25;100.00;100943.84;5001040;28;20049;-84
2024/01/19 06:25:14;;;;;;;1.85;0.93;;;;;;;2.25;100.00;100948.94;5002480;28;20046;-84
2024/01/19 06:27:44;;;;;;;1.30;0.60;;;;;;;2.19;100.00;100954.50;5011010;28;20498;-85
2024/01/19 06:30:48;;;;;;;0.50;0.50;;;;;;;2.21;100.00;100952.94;5011559;28;20420;-84
2024/01/19 06:33:16;;;;;;;1.70;0.90;;;;;;;2.25;100.00;100934.50;5012290;28;20081;-81
2024/01/19 06:35:45;;;;;;;1.73;1.17;;;;;;;2.25;100.00;100911.53;5008528;28;20481;-86
2024/01/19 06:38:14;;;;;;;2.42;0.93;;;;;;;2.24;100.00;100881.66;5006195;28;20069;-84
2024/01/19 06:40:51;;;;;;;1.48;0.73;;;;;;;2.24;100.00;100858.66;5018796;28;20484;-85
2024/01/19 06:43:20;;;;;;;2.05;0.82;;;;;;;2.28;100.00;100860.63;5013630;28;20046;-84
2024/01/19 06:45:51;;;;;;;4.07;1.25;;;;;;;2.24;100.00;100866.31;5008786;28;20145;-85
2024/01/19 06:48:29;;;;;;;2.47;0.90;;;;;;;2.19;100.00;100894.91;5017687;28;20125;-81
2024/01/19 06:50:58;;;;;;;1.00;0.90;;;;;;;2.25;100.00;100915.75;5002175;28;20149;-84
2024/01/19 06:53:26;;;;;;;1.17;0.70;;;;;;;2.22;100.00;100895.09;5016123;28;20050;-82
2024/01/19 06:55:55;;;;;;;2.38;0.85;;;;;;;2.29;100.00;100922.78;5008914;28;20136;-83
2024/01/19 06:58:27;;;;;;;1.75;0.80;;;;;;;2.26;100.00;100943.91;5005214;28;20183;-82
2024/01/19 07:00:57;;;;;;;1.52;0.70;;;;;;;2.26;100.00;100943.91;5018698;28;20119;-82
2024/01/19 07:03:26;;;;;;;1.48;0.93;;;;;;;2.29;100.00;100941.59;5021402;28;20068;-83
2024/01/19 07:05:56;;;;;;;1.27;0.70;;;;;;;2.34;100.00;100956.28;5010243;28;20093;-83
2024/01/19 07:08:24;;;;;;;2.67;0.80;;;;;;;2.32;100.00;100929.81;5015466;28;20574;-84
2024/01/19 07:10:56;;;;;;;1.70;1.13;;;;;;;2.36;100.00;100924.09;5012136;28;20045;-82
2024/01/19 07:13:25;;;;;;;0.90;0.63;;;;;;;2.40;100.00;100903.06;4996477;28;20482;-82
2024/01/19 07:15:55;;;;;;;3.33;0.88;;;;;;;2.37;100.00;100897.78;4997348;28;20058;-82
2024/01/19 07:18:28;;;;;;;1.75;0.98;;;;;;;2.42;100.00;100914.28;5007458;28;20053;-83
2024/01/19 07:21:04;;;;;;;1.27;0.80;;;;;;;2.44;100.00;100897.38;5017738;28;20117;-82
2024/01/19 07:23:34;;;;;;;2.42;1.23;;;;;;;2.42;100.00;100906.63;5006322;28;20120;-82
2024/01/19 07:26:03;;;;;;;1.63;0.73;;;;;;;2.47;100.00;100928.22;5016250;28;20141;-82
2024/01/19 07:28:32;;;;;;;0.70;0.70;;;;;;;2.50;100.00;100913.13;5018754;28;20088;-83
2024/01/19 07:31:01;;;;;;;1.73;0.88;;;;;;;2.54;100.00;100932.94;5020434;28;20057;-83
2024/01/19 07:33:31;;;;;;;1.38;0.75;;;;;;;2.54;100.00;100944.81;5019153;28;20061;-83
2024/01/19 07:36:00;;;;;;;1.75;0.90;;;;;;;2.53;100.00;100941.41;5010956;28;20140;-82
2024/01/19 07:38:29;;;;;;;1.77;0.90;;;;;;;2.59;100.00;100929.03;5000675;28;20054;-82
2024/01/19 07:41:07;;;;;;;1.73;0.70;;;;;;;2.62;100.00;100908.78;5025850;28;20049;-82
2024/01/19 07:43:35;;;;;;;3.05;0.95;;;;;;;2.66;100.00;100920.97;5019965;28;20069;-82
2024/01/19 07:46:05;;;;;;;2.17;0.60;;;;;;;2.68;100.00;100929.63;5006405;28;20109;-83
2024/01/19 07:48:41;;;;;;;3.15;0.80;;;;;;;2.68;100.00;100919.41;5014951;28;20045;-82
2024/01/19 07:51:10;;;;;;;1.05;0.80;;;;;;;2.68;100.00;100918.50;5008837;28;20046;-85
2024/01/19 07:53:39;;;;;;;1.67;0.95;;;;;;;2.68;100.00;100924.50;5009198;28;20054;-82
2024/01/19 07:56:08;;;;;;;2.20;1.05;;;;;;;2.67;100.00;100889.50;5021531;28;20154;-82
2024/01/19 07:58:37;;;;;;;1.30;0.93;;;;;;;2.69;100.00;100910.94;5001140;28;20050;-84
2024/01/19 08:01:09;;;;;;;0.90;0.70;;;;;;;2.68;100.00;100909.19;5014215;28;20134;-84
2024/01/19 08:03:40;;;;;;;2.17;0.80;;;;;;;2.63;100.00;100900.31;5018672;28;20080;-84
2024/01/19 08:06:09;;;;;;;1.17;0.70;;;;;;;2.66;100.00;100899.66;5021607;28;20081;-82
2024/01/19 08:08:38;;;;;;;1.83;0.65;;;;;;;2.68;100.00;100891.28;5030269;28;20061;-85
2024/01/19 08:11:09;;;;;;;1.42;0.68;;;;;;;2.68;100.00;100888.75;5027146;28;20046;-84
2024/01/19 08:13:39;;;;;;;1.70;0.70;;;;;;;2.64;100.00;100880.78;5025345;28;20054;-82
2024/01/19 08:16:09;;;;;;;1.50;0.70;;;;;;;2.66;100.00;100884.31;5022385;28;20046;-85
2024/01/19 08:18:46;;;;;;;1.52;0.57;;;;;;;2.67;100.00;100909.06;5031630;28;20162;-82
2024/01/19 08:21:15;;;;;;;2.78;0.82;;;;;;;2.67;100.00;100917.59;5027461;28;20099;-83
2024/01/19 08:23:43;;;;;;;3.40;0.85;;;;;;;2.68;100.00;100905.72;5041426;28;20686;-82
2024/01/19 08:26:12;;;;;;;1.40;0.70;;;;;;;2.66;100.00;100912.44;5027339;28;20049;-83
2024/01/19 08:28:46;;;;;;;0.60;0.43;;;;;;;2.70;100.00;100915.28;5025736;28;20049;-83
2024/01/19 08:31:17;;;;;;;1.25;0.50;;;;;;;2.71;100.00;100905.94;5025456;28;20045;-83
2024/01/19 08:33:48;;;;;;;1.05;0.60;;;;;;;2.75;100.00;100899.31;5006784;28;20050;-82
2024/01/19 08:36:16;;;;;;;1.75;0.98;;;;;;;2.75;100.00;100896.75;5024106;28;20058;-83
2024/01/19 08:38:59;;;;;;;1.58;0.82;;;;;;;2.73;100.00;100887.34;5017444;28;20073;-82
2024/01/19 08:41:28;;;;;;;1.95;0.90;;;;;;;2.71;100.00;100899.13;5006752;28;20053;-84
2024/01/19 08:43:56;;;;;;;1.67;0.82;;;;;;;2.68;100.00;100887.81;5013382;28;20584;-84
2024/01/19 08:46:28;;;;;;;2.00;0.63;;;;;;;2.66;100.00;100890.31;5007185;28;20050;-85
2024/01/19 08:49:01;;;;;;;2.03;0.82;;;;;;;2.65;100.00;100903.84;5007080;28;20089;-83
2024/01/19 08:51:30;;;;;;;1.73;0.80;;;;;;;2.64;100.00;100896.13;5020179;28;20058;-83
2024/01/19 08:53:59;;;;;;;1.45;0.57;;;;;;;2.61;100.00;100896.81;5009763;28;20058;-83
2024/01/19 08:56:31;;;;;;;2.85;1.00;;;;;;;2.67;100.00;100899.72;5017510;28;20092;-84
2024/01/19 08:59:00;;;;;;;1.77;0.80;;;;;;;2.68;100.00;100898.97;4990150;28;20042;-83
2024/01/19 09:01:29;;;;;;;0.63;0.50;;;;;;;2.65;100.00;100908.97;5011651;28;20524;-83
2024/01/19 09:04:02;;;;;;;1.35;0.50;;;;;;;2.58;100.00;100891.47;5010734;28;20439;-83
2024/01/19 09:06:41;;;;;;;2.58;0.55;;;;;;;2.57;100.00;100889.72;5012266;28;20052;-84
2024/01/19 09:09:10;;;;;;;1.98;0.80;;;;;;;2.51;100.00;100874.00;5010082;28;20054;-83
2024/01/19 09:11:39;;;;;;;1.08;0.77;;;;;;;2.48;100.00;100879.81;5016155;28;20105;-85
2024/01/19 09:14:09;;;;;;;0.60;0.50;;;;;;;2.49;100.00;100885.78;4991886;28;20046;-83
2024/01/19 09:16:43;;;;;;;1.60;1.05;;;;;;;2.50;100.00;100890.13;4995951;28;20143;-83
2024/01/19 09:19:15;;;;;;;1.85;0.70;;;;;;;2.49;100.00;100896.00;5010086;28;20053;-84
2024/01/19 09:21:44;;;;;;;1.92;0.63;;;;;;;2.47;100.00;100892.47;5008562;28;20061;-85
2024/01/19 09:24:22;;;;;;;2.45;0.95;;;;;;;2.49;100.00;100890.91;5004743;28;20117;-83
2024/01/19 09:26:51;;;;;;;0.43;0.43;;;;;;;2.51;100.00;100886.78;5019767;28;20136;-84
2024/01/19 09:29:20;;;;;;;1.83;0.85;;;;;;;2.50;100.00;100885.03;5014603;28;20099;-84
2024/01/19 09:31:49;;;;;;;1.02;0.60;;;;;;;2.50;100.00;100891.00;5011047;28;20132;-83
2024/01/19 09:34:25;;;;;;;2.00;0.90;;;;;;;2.47;100.00;100897.56;5008987;28;20062;-83
2024/01/19 09:36:54;;;;;;;2.17;0.65;;;;;;;2.49;100.00;100899.44;5009435;28;20065;-84
2024/01/19 09:39:23;;;;;;;2.20;1.20;;;;;;;2.50;100.00;100918.22;5004510;28;20421;-84
2024/01/19 09:41:56;;;;;;;1.10;0.70;;;;;;;2.51;100.00;100902.09;5004849;28;20448;-84
2024/01/19 09:44:35;;;;;;;1.50;0.80;;;;;;;2.54;100.00;100903.97;5010083;28;20088;-84
2024/01/19 09:47:22;;;;;;;1.48;0.65;;;;;;;2.49;100.00;100902.00;5003684;28;20088;-84
2024/01/19 09:50:05;;;;;;;1.70;0.50;;;;;;;2.52;100.00;100898.78;5003385;28;20381;-84
2024/01/19 09:52:53;;;;;;;0.90;0.77;;;;;;;2.51;100.00;100912.31;5015832;28;20046;-85
2024/01/19 09:55:22;;;;;;;0.68;0.65;;;;;;;2.50;100.00;100913.13;5006835;28;20050;-83
2024/01/19 09:57:52;;;;;;;1.63;0.60;;;;;;;2.53;100.00;100918.41;4994723;28;20425;-85
2024/01/19 10:00:23;;;;;;;2.33;0.80;;;;;;;2.53;100.00;100913.31;4998305;28;20065;-85
2024/01/19 10:02:53;;;;;;;1.27;0.80;;;;;;;2.54;100.00;100907.38;5012175;28;20057;-84
2024/01/19 10:05:24;;;;;;;1.05;0.80;;;;;;;2.53;100.00;100928.63;5016589;28;20057;-84
2024/01/19 10:07:59;;;;;;;4.00;1.00;;;;;;;2.51;100.00;100904.66;5009211;28;20045;-85
2024/01/19 10:10:28;;;;;;;0.80;0.60;;;;;;;2.46;100.00;100906.91;5015759;28;20464;-84
2024/01/19 10:12:57;;;;;;;1.77;0.70;;;;;;;2.46;100.00;100913.69;5006420;28;20054;-82
2024/01/19 10:15:26;;;;;;;1.40;0.70;;;;;;;2.47;100.00;100902.69;4997775;28;20112;-84
2024/01/19 10:18:03;;;;;;;2.55;1.20;;;;;;;2.43;100.00;100901.63;4997444;28;20049;-85
2024/01/19 10:20:34;;;;;;;1.13;0.70;;;;;;;2.46;100.00;100901.81;5018529;28;20057;-84
2024/01/19 10:23:23;;;;;;;2.97;0.75;;;;;;;2.45;100.00;100891.47;5005644;28;20077;-84
2024/01/19 10:25:53;;;;;;;1.17;0.73;;;;;;;2.44;100.00;100872.72;4998734;28;20053;-83
2024/01/19 10:28:33;;;;;;;2.10;0.60;;;;;;;2.49;100.00;100880.69;5013162;28;20104;-85
2024/01/19 10:31:22;;;;;;;2.17;0.73;;;;;;;2.42;100.00;100848.75;5014299;28;20094;-82
2024/01/19 10:34:18;;;;;;;1.48;0.60;;;;;;;2.41;100.00;100851.22;5009170;28;20062;-84
2024/01/19 10:36:58;;;;;;;1.15;0.73;;;;;;;2.36;100.00;100860.25;5000157;28;20058;-87
2024/01/19 10:39:29;;;;;;;1.88;0.90;;;;;;;2.35;100.00;100872.13;5010121;28;20100;-83
2024/01/19 10:42:06;;;;;;;0.88;0.68;;;;;;;2.38;100.00;100876.56;5018455;28;20065;-84
2024/01/19 10:44:43;;;;;;;2.58;0.90;;;;;;;2.38;100.00;100886.75;5003464;28;20054;-85
2024/01/19 10:47:12;;;;;;;0.98;0.60;;;;;;;2.34;100.00;100882.25;5010816;28;20128;-85
2024/01/19 10:49:41;;;;;;;1.73;1.00;;;;;;;2.36;100.00;100880.66;5019549;28;20136;-85
2024/01/19 10:52:26;;;;;;;1.05;0.68;;;;;;;2.33;100.00;100890.69;5008282;28;20041;-85
2024/01/19 10:54:55;;;;;;;1.00;0.68;;;;;;;2.36;100.00;100893.44;5013507;28;20080;-83
2024/01/19 10:57:26;;;;;;;1.52;0.80;;;;;;;2.38;100.00;100877.44;5007998;28;20112;-83
2024/01/19 11:00:36;;;;;;;2.53;0.70;;;;;;;2.38;100.00;100891.88;5010928;28;20434;-86
2024/01/19 11:03:05;;;;;;;0.57;0.50;;;;;;;2.35;100.00;100876.38;5002940;28;20049;-85
2024/01/19 11:05:34;;;;;;;1.52;0.80;;;;;;;2.39;100.00;100891.09;5012501;28;20056;-85
2024/01/19 11:08:06;;;;;;;0.90;0.73;;;;;;;2.40;100.00;100877.53;5014842;28;20066;-86
2024/01/19 11:10:37;;;;;;;1.15;0.70;;;;;;;2.37;100.00;100885.00;5019886;28;20073;-83
2024/01/19 11:13:09;;;;;;;2.33;1.05;;;;;;;2.38;100.00;100866.34;5013385;28;20520;-84
2024/01/19 11:15:41;;;;;;;0.90;0.60;;;;;;;2.38;100.00;100868.88;5001414;28;20108;-85
2024/01/19 11:18:18;;;;;;;;;;;;;;;2.41;99.09;100858.91;5003229;28;20037;-85
2024/01/19 11:20:47;;;;;;;3.25;1.08;;;;;;;2.42;98.50;100837.66;5015068;28;19925;-84
2024/01/19 11:23:19;;;;;;;2.20;0.80;;;;;;;2.35;97.97;100826.19;5002049;28;20050;-85
2024/01/19 11:26:03;;;;;;;1.70;0.65;;;;;;;2.39;99.48;100842.59;5021770;28;20077;-84
2024/01/19 11:28:44;;;;;;;1.60;0.93;;;;;;;2.38;100.00;100841.69;5014548;28;20108;-85
2024/01/19 11:31:20;;;;;;;2.17;1.20;;;;;;;2.30;100.00;100846.31;5009940;28;20054;-85
2024/01/19 11:33:49;;;;;;;2.67;1.00;;;;;;;2.29;100.00;100872.63;5012012;28;20056;-85
2024/01/19 11:36:48;;;;;;;1.70;0.85;;;;;;;2.30;100.00;100884.59;5010540;28;20060;-87
2024/01/19 11:39:44;;;;;;;2.78;0.85;;;;;;;2.25;99.42;100855.34;5016611;28;20046;-85
2024/01/19 11:42:48;;;;;;;2.67;1.40;;;;;;;2.27;100.00;100897.19;5018477;28;20108;-84
2024/01/19 11:45:42;;;;;;;1.30;0.93;;;;;;;2.27;100.00;100858.88;5024211;28;20128;-84
2024/01/19 11:48:11;;;;;;;1.30;0.60;;;;;;;2.34;99.03;100836.28;5019248;28;20168;-84
2024/01/19 11:50:47;;;;;;;1.00;0.50;;;;;;;2.36;98.61;100816.84;5022141;28;20060;-84
2024/01/19 11:53:16;;;;;;;1.50;0.98;;;;;;;2.38;98.77;100821.25;5019153;28;20132;-86
2024/01/19 11:55:48;;;;;;;1.45;1.00;;;;;;;2.30;98.45;100802.91;5022006;28;20103;-84